sensor_id;sensor_type;location;lat;lon;timestamp;temperature;humidity
72883;DHT22;61017;37.812;-122.286;2024-01-10T00:00:43;15.30;80.10
72883;DHT22;61017;37.812;-122.286;2024-01-10T00:02:15;15.30;80.10
72883;DHT22;61017;37.812;-122.286;2024-01-10T00:03:46;15.30;80.10
72883;DHT22;61017;37.812;-122.286;2024-01-10T00:05:17;15.30;80.10
72883;DHT22;61017;37.812;-122.286;2024-01-10T00:06:48;15.30;80.80
72883;DHT22;61017;37.812;-122.286;2024-01-10T00:08:19;15.40;80.50
72883;DHT22;61017;37.812;-122.286;2024-01-10T00:09:50;15.30;80.40
72883;DHT22;61017;37.812;-122.286;2024-01-10T00:11:21;15.30;80.40
72883;DHT22;61017;37.812;-122.286;2024-01-10T00:12:52;15.30;80.30
72883;DHT22;61017;37.812;-122.286;2024-01-10T00:14:24;15.30;80.10
72883;DHT22;61017;37.812;-122.286;2024-01-10T00:15:55;15.30;80.00
72883;DHT22;61017;37.812;-122.286;2024-01-10T00:17:26;15.30;79.80
72883;DHT22;61017;37.812;-122.286;2024-01-10T00:18:57;15.30;80.00
72883;DHT22;61017;37.812;-122.286;2024-01-10T00:20:28;15.30;79.70
72883;DHT22;61017;37.812;-122.286;2024-01-10T00:21:59;15.20;79.30
72883;DHT22;61017;37.812;-122.286;2024-01-10T00:23:30;15.20;79.00
72883;DHT22;61017;37.812;-122.286;2024-01-10T00:25:01;15.20;79.30
72883;DHT22;61017;37.812;-122.286;2024-01-10T00:26:32;15.20;79.40
72883;DHT22;61017;37.812;-122.286;2024-01-10T00:28:04;15.20;79.00
72883;DHT22;61017;37.812;-122.286;2024-01-10T00:29:35;15.20;79.40
72883;DHT22;61017;37.812;-122.286;2024-01-10T00:31:06;15.20;79.10
72883;DHT22;61017;37.812;-122.286;2024-01-10T00:32:37;15.20;79.10
72883;DHT22;61017;37.812;-122.286;2024-01-10T00:34:08;15.20;78.90
72883;DHT22;61017;37.812;-122.286;2024-01-10T00:35:39;15.20;78.90
72883;DHT22;61017;37.812;-122.286;2024-01-10T00:37:11;15.20;78.50
72883;DHT22;61017;37.812;-122.286;2024-01-10T00:38:42;15.20;78.70
72883;DHT22;61017;37.812;-122.286;2024-01-10T00:40:13;15.20;78.80
72883;DHT22;61017;37.812;-122.286;2024-01-10T00:41:44;15.10;78.70
72883;DHT22;61017;37.812;-122.286;2024-01-10T00:43:15;15.20;78.60
72883;DHT22;61017;37.812;-122.286;2024-01-10T00:44:46;15.10;78.40
72883;DHT22;61017;37.812;-122.286;2024-01-10T00:46:17;15.10;78.50
72883;DHT22;61017;37.812;-122.286;2024-01-10T00:47:48;15.10;78.80
72883;DHT22;61017;37.812;-122.286;2024-01-10T00:49:20;15.10;78.40
72883;DHT22;61017;37.812;-122.286;2024-01-10T00:50:51;15.10;78.40
72883;DHT22;61017;37.812;-122.286;2024-01-10T00:52:22;15.10;78.50
72883;DHT22;61017;37.812;-122.286;2024-01-10T00:53:53;15.10;78.40
72883;DHT22;61017;37.812;-122.286;2024-01-10T00:55:24;15.10;78.40
72883;DHT22;61017;37.812;-122.286;2024-01-10T00:56:55;15.10;78.10
72883;DHT22;61017;37.812;-122.286;2024-01-10T00:58:27;15.10;78.30
72883;DHT22;61017;37.812;-122.286;2024-01-10T00:59:58;15.00;77.90
72883;DHT22;61017;37.812;-122.286;2024-01-10T01:01:29;15.10;78.30
72883;DHT22;61017;37.812;-122.286;2024-01-10T01:03:00;15.10;78.30
72883;DHT22;61017;37.812;-122.286;2024-01-10T01:04:31;15.10;78.30
72883;DHT22;61017;37.812;-122.286;2024-01-10T01:06:02;15.00;78.10
72883;DHT22;61017;37.812;-122.286;2024-01-10T01:07:33;15.00;78.10
72883;DHT22;61017;37.812;-122.286;2024-01-10T01:19:09;15.00;77.90
72883;DHT22;61017;37.812;-122.286;2024-01-10T01:20:40;15.00;77.90
72883;DHT22;61017;37.812;-122.286;2024-01-10T01:22:11;15.00;77.80
72883;DHT22;61017;37.812;-122.286;2024-01-10T01:23:42;15.00;78.00
72883;DHT22;61017;37.812;-122.286;2024-01-10T01:25:13;15.00;78.60
72883;DHT22;61017;37.812;-122.286;2024-01-10T01:26:45;15.00;77.90
72883;DHT22;61017;37.812;-122.286;2024-01-10T01:28:16;15.00;78.00
72883;DHT22;61017;37.812;-122.286;2024-01-10T01:29:47;15.00;77.80
72883;DHT22;61017;37.812;-122.286;2024-01-10T01:31:18;15.10;77.90
72883;DHT22;61017;37.812;-122.286;2024-01-10T01:32:49;15.00;77.70
72883;DHT22;61017;37.812;-122.286;2024-01-10T01:34:20;15.00;77.70
72883;DHT22;61017;37.812;-122.286;2024-01-10T01:35:51;15.00;77.80
72883;DHT22;61017;37.812;-122.286;2024-01-10T01:37:22;15.00;77.70
72883;DHT22;61017;37.812;-122.286;2024-01-10T01:38:53;15.00;77.50
72883;DHT22;61017;37.812;-122.286;2024-01-10T01:40:24;14.90;77.50
72883;DHT22;61017;37.812;-122.286;2024-01-10T01:41:55;14.90;77.60
72883;DHT22;61017;37.812;-122.286;2024-01-10T01:43:26;14.90;77.80
72883;DHT22;61017;37.812;-122.286;2024-01-10T01:45:00;14.90;77.60
72883;DHT22;61017;37.812;-122.286;2024-01-10T01:46:32;14.90;77.70
72883;DHT22;61017;37.812;-122.286;2024-01-10T01:48:03;14.90;77.60
72883;DHT22;61017;37.812;-122.286;2024-01-10T01:49:38;14.90;77.90
72883;DHT22;61017;37.812;-122.286;2024-01-10T01:51:09;14.90;77.90
72883;DHT22;61017;37.812;-122.286;2024-01-10T01:52:42;14.90;77.70
72883;DHT22;61017;37.812;-122.286;2024-01-10T01:54:15;14.90;77.90
72883;DHT22;61017;37.812;-122.286;2024-01-10T01:55:46;14.90;77.60
72883;DHT22;61017;37.812;-122.286;2024-01-10T01:57:17;14.90;77.70
72883;DHT22;61017;37.812;-122.286;2024-01-10T01:58:48;14.90;77.70
72883;DHT22;61017;37.812;-122.286;2024-01-10T02:00:21;14.90;77.50
72883;DHT22;61017;37.812;-122.286;2024-01-10T02:01:52;14.90;77.70
72883;DHT22;61017;37.812;-122.286;2024-01-10T02:03:25;14.90;77.80
72883;DHT22;61017;37.812;-122.286;2024-01-10T02:04:56;14.90;77.70
72883;DHT22;61017;37.812;-122.286;2024-01-10T02:06:31;14.90;77.90
72883;DHT22;61017;37.812;-122.286;2024-01-10T02:08:02;14.90;78.00
72883;DHT22;61017;37.812;-122.286;2024-01-10T02:09:33;14.90;77.90
72883;DHT22;61017;37.812;-122.286;2024-01-10T02:11:04;14.90;77.90
72883;DHT22;61017;37.812;-122.286;2024-01-10T02:12:35;14.90;77.90
72883;DHT22;61017;37.812;-122.286;2024-01-10T02:14:06;14.90;77.90
72883;DHT22;61017;37.812;-122.286;2024-01-10T02:15:41;14.90;77.80
72883;DHT22;61017;37.812;-122.286;2024-01-10T02:17:12;14.90;77.80
72883;DHT22;61017;37.812;-122.286;2024-01-10T02:18:44;14.90;77.80
72883;DHT22;61017;37.812;-122.286;2024-01-10T02:20:15;14.90;77.80
72883;DHT22;61017;37.812;-122.286;2024-01-10T02:21:46;14.90;77.80
72883;DHT22;61017;37.812;-122.286;2024-01-10T02:23:17;14.90;77.70
72883;DHT22;61017;37.812;-122.286;2024-01-10T02:24:52;14.80;77.60
72883;DHT22;61017;37.812;-122.286;2024-01-10T02:26:24;14.90;77.90
72883;DHT22;61017;37.812;-122.286;2024-01-10T02:27:55;14.90;77.90
72883;DHT22;61017;37.812;-122.286;2024-01-10T02:29:27;14.90;77.70
72883;DHT22;61017;37.812;-122.286;2024-01-10T02:30:58;14.90;77.70
72883;DHT22;61017;37.812;-122.286;2024-01-10T02:32:29;14.80;77.70
72883;DHT22;61017;37.812;-122.286;2024-01-10T02:34:00;14.80;77.70
72883;DHT22;61017;37.812;-122.286;2024-01-10T02:35:31;14.90;77.70
72883;DHT22;61017;37.812;-122.286;2024-01-10T02:37:03;14.90;77.60
72883;DHT22;61017;37.812;-122.286;2024-01-10T02:38:34;14.90;77.80
72883;DHT22;61017;37.812;-122.286;2024-01-10T02:40:05;14.90;77.70
72883;DHT22;61017;37.812;-122.286;2024-01-10T02:41:37;14.90;77.80
72883;DHT22;61017;37.812;-122.286;2024-01-10T02:43:08;14.90;77.70
72883;DHT22;61017;37.812;-122.286;2024-01-10T02:44:39;14.90;77.60
72883;DHT22;61017;37.812;-122.286;2024-01-10T02:46:10;14.90;77.50
72883;DHT22;61017;37.812;-122.286;2024-01-10T02:47:41;14.90;77.60
72883;DHT22;61017;37.812;-122.286;2024-01-10T02:49:12;14.90;77.60
72883;DHT22;61017;37.812;-122.286;2024-01-10T02:50:43;14.90;77.70
72883;DHT22;61017;37.812;-122.286;2024-01-10T02:52:14;14.90;77.70
72883;DHT22;61017;37.812;-122.286;2024-01-10T02:53:45;14.80;77.60
72883;DHT22;61017;37.812;-122.286;2024-01-10T02:55:17;14.90;77.70
72883;DHT22;61017;37.812;-122.286;2024-01-10T02:56:49;14.90;77.70
72883;DHT22;61017;37.812;-122.286;2024-01-10T02:58:20;14.90;77.70
72883;DHT22;61017;37.812;-122.286;2024-01-10T02:59:51;14.90;77.80
72883;DHT22;61017;37.812;-122.286;2024-01-10T03:01:23;14.90;77.70
72883;DHT22;61017;37.812;-122.286;2024-01-10T03:02:54;14.90;77.70
72883;DHT22;61017;37.812;-122.286;2024-01-10T03:04:25;14.80;77.60
72883;DHT22;61017;37.812;-122.286;2024-01-10T03:05:57;14.90;77.70
72883;DHT22;61017;37.812;-122.286;2024-01-10T03:07:28;14.90;77.70
72883;DHT22;61017;37.812;-122.286;2024-01-10T03:08:59;14.90;77.70
72883;DHT22;61017;37.812;-122.286;2024-01-10T03:10:30;14.90;77.70
72883;DHT22;61017;37.812;-122.286;2024-01-10T03:12:01;14.90;77.50
72883;DHT22;61017;37.812;-122.286;2024-01-10T03:13:32;14.80;77.50
72883;DHT22;61017;37.812;-122.286;2024-01-10T03:15:04;14.90;77.70
72883;DHT22;61017;37.812;-122.286;2024-01-10T03:16:36;14.80;77.60
72883;DHT22;61017;37.812;-122.286;2024-01-10T03:18:07;14.80;77.60
72883;DHT22;61017;37.812;-122.286;2024-01-10T03:19:38;14.80;77.60
72883;DHT22;61017;37.812;-122.286;2024-01-10T03:21:09;14.80;77.60
72883;DHT22;61017;37.812;-122.286;2024-01-10T03:22:40;14.80;77.70
72883;DHT22;61017;37.812;-122.286;2024-01-10T03:24:11;14.80;77.60
72883;DHT22;61017;37.812;-122.286;2024-01-10T03:25:43;14.80;77.60
72883;DHT22;61017;37.812;-122.286;2024-01-10T03:27:14;14.80;77.60
72883;DHT22;61017;37.812;-122.286;2024-01-10T03:28:45;14.80;77.60
72883;DHT22;61017;37.812;-122.286;2024-01-10T03:30:36;14.80;77.50
72883;DHT22;61017;37.812;-122.286;2024-01-10T03:32:10;14.80;77.50
72883;DHT22;61017;37.812;-122.286;2024-01-10T03:33:45;14.80;77.40
72883;DHT22;61017;37.812;-122.286;2024-01-10T03:35:16;14.80;77.40
72883;DHT22;61017;37.812;-122.286;2024-01-10T03:36:48;14.80;77.50
72883;DHT22;61017;37.812;-122.286;2024-01-10T03:38:20;14.80;77.40
72883;DHT22;61017;37.812;-122.286;2024-01-10T03:39:51;14.80;77.30
72883;DHT22;61017;37.812;-122.286;2024-01-10T03:41:22;14.80;77.50
72883;DHT22;61017;37.812;-122.286;2024-01-10T03:42:56;14.80;77.50
72883;DHT22;61017;37.812;-122.286;2024-01-10T03:44:27;14.80;77.30
72883;DHT22;61017;37.812;-122.286;2024-01-10T03:45:58;14.80;77.40
72883;DHT22;61017;37.812;-122.286;2024-01-10T03:47:29;14.80;77.40
72883;DHT22;61017;37.812;-122.286;2024-01-10T03:49:00;14.80;77.50
72883;DHT22;61017;37.812;-122.286;2024-01-10T03:50:35;14.80;77.40
72883;DHT22;61017;37.812;-122.286;2024-01-10T03:52:06;14.80;77.30
72883;DHT22;61017;37.812;-122.286;2024-01-10T03:53:37;14.80;77.30
72883;DHT22;61017;37.812;-122.286;2024-01-10T03:55:14;14.80;77.40
72883;DHT22;61017;37.812;-122.286;2024-01-10T03:56:45;14.80;77.40
72883;DHT22;61017;37.812;-122.286;2024-01-10T03:58:19;14.80;77.30
72883;DHT22;61017;37.812;-122.286;2024-01-10T03:59:50;14.80;77.10
72883;DHT22;61017;37.812;-122.286;2024-01-10T04:01:24;14.80;77.30
72883;DHT22;61017;37.812;-122.286;2024-01-10T04:02:55;14.80;77.20
72883;DHT22;61017;37.812;-122.286;2024-01-10T04:04:26;14.80;77.10
72883;DHT22;61017;37.812;-122.286;2024-01-10T04:05:57;14.80;77.10
72883;DHT22;61017;37.812;-122.286;2024-01-10T04:07:29;14.80;77.00
72883;DHT22;61017;37.812;-122.286;2024-01-10T04:09:05;14.80;77.20
72883;DHT22;61017;37.812;-122.286;2024-01-10T04:10:36;14.80;77.00
72883;DHT22;61017;37.812;-122.286;2024-01-10T04:12:07;14.80;76.90
72883;DHT22;61017;37.812;-122.286;2024-01-10T04:13:39;14.80;76.90
72883;DHT22;61017;37.812;-122.286;2024-01-10T04:15:10;14.80;77.00
72883;DHT22;61017;37.812;-122.286;2024-01-10T04:16:41;14.80;77.00
72883;DHT22;61017;37.812;-122.286;2024-01-10T04:18:13;14.80;76.80
72883;DHT22;61017;37.812;-122.286;2024-01-10T04:19:45;14.80;76.80
72883;DHT22;61017;37.812;-122.286;2024-01-10T04:21:16;14.80;76.70
72883;DHT22;61017;37.812;-122.286;2024-01-10T04:22:50;14.80;76.40
72883;DHT22;61017;37.812;-122.286;2024-01-10T04:24:21;14.80;75.90
72883;DHT22;61017;37.812;-122.286;2024-01-10T04:25:53;14.70;76.10
72883;DHT22;61017;37.812;-122.286;2024-01-10T04:27:24;14.80;76.30
72883;DHT22;61017;37.812;-122.286;2024-01-10T04:28:55;14.80;76.40
72883;DHT22;61017;37.812;-122.286;2024-01-10T04:30:26;14.80;76.40
72883;DHT22;61017;37.812;-122.286;2024-01-10T04:31:57;14.80;76.40
72883;DHT22;61017;37.812;-122.286;2024-01-10T04:33:29;14.80;76.10
72883;DHT22;61017;37.812;-122.286;2024-01-10T04:35:03;14.80;75.70
72883;DHT22;61017;37.812;-122.286;2024-01-10T04:36:37;14.80;75.60
72883;DHT22;61017;37.812;-122.286;2024-01-10T04:38:11;14.80;76.00
72883;DHT22;61017;37.812;-122.286;2024-01-10T04:39:45;14.80;76.10
72883;DHT22;61017;37.812;-122.286;2024-01-10T04:41:16;14.80;76.00
72883;DHT22;61017;37.812;-122.286;2024-01-10T04:42:48;14.80;76.00
72883;DHT22;61017;37.812;-122.286;2024-01-10T04:44:19;14.90;76.00
72883;DHT22;61017;37.812;-122.286;2024-01-10T04:45:50;14.90;76.00
72883;DHT22;61017;37.812;-122.286;2024-01-10T04:47:22;14.90;76.00
72883;DHT22;61017;37.812;-122.286;2024-01-10T04:48:53;14.90;76.10
72883;DHT22;61017;37.812;-122.286;2024-01-10T04:50:27;14.90;76.00
72883;DHT22;61017;37.812;-122.286;2024-01-10T04:51:59;14.90;76.00
72883;DHT22;61017;37.812;-122.286;2024-01-10T04:53:33;14.90;76.00
72883;DHT22;61017;37.812;-122.286;2024-01-10T04:55:04;14.90;76.00
72883;DHT22;61017;37.812;-122.286;2024-01-10T04:56:41;14.90;76.00
72883;DHT22;61017;37.812;-122.286;2024-01-10T04:58:18;14.90;75.80
72883;DHT22;61017;37.812;-122.286;2024-01-10T04:59:49;14.90;75.80
72883;DHT22;61017;37.812;-122.286;2024-01-10T05:03:14;14.90;75.70
72883;DHT22;61017;37.812;-122.286;2024-01-10T05:04:45;14.90;75.80
72883;DHT22;61017;37.812;-122.286;2024-01-10T05:06:16;14.90;75.90
72883;DHT22;61017;37.812;-122.286;2024-01-10T05:07:47;14.90;75.90
72883;DHT22;61017;37.812;-122.286;2024-01-10T05:09:18;14.90;75.60
72883;DHT22;61017;37.812;-122.286;2024-01-10T05:10:49;14.90;75.90
72883;DHT22;61017;37.812;-122.286;2024-01-10T05:12:23;14.80;75.90
72883;DHT22;61017;37.812;-122.286;2024-01-10T05:13:54;14.90;76.00
72883;DHT22;61017;37.812;-122.286;2024-01-10T05:15:26;14.90;76.00
72883;DHT22;61017;37.812;-122.286;2024-01-10T05:16:57;14.90;76.00
72883;DHT22;61017;37.812;-122.286;2024-01-10T05:18:28;14.80;75.90
72883;DHT22;61017;37.812;-122.286;2024-01-10T05:20:08;14.80;76.00
72883;DHT22;61017;37.812;-122.286;2024-01-10T05:21:39;14.90;76.00
72883;DHT22;61017;37.812;-122.286;2024-01-10T05:23:11;14.90;75.90
72883;DHT22;61017;37.812;-122.286;2024-01-10T05:24:42;14.90;75.90
72883;DHT22;61017;37.812;-122.286;2024-01-10T05:26:13;14.80;75.90
72883;DHT22;61017;37.812;-122.286;2024-01-10T05:27:44;14.80;75.80
72883;DHT22;61017;37.812;-122.286;2024-01-10T05:29:15;14.80;75.70
72883;DHT22;61017;37.812;-122.286;2024-01-10T05:30:49;14.80;75.90
72883;DHT22;61017;37.812;-122.286;2024-01-10T05:32:20;14.80;75.70
72883;DHT22;61017;37.812;-122.286;2024-01-10T05:33:51;14.80;75.70
72883;DHT22;61017;37.812;-122.286;2024-01-10T05:35:22;14.80;75.80
72883;DHT22;61017;37.812;-122.286;2024-01-10T05:36:56;14.80;75.50
72883;DHT22;61017;37.812;-122.286;2024-01-10T05:38:27;14.80;75.50
72883;DHT22;61017;37.812;-122.286;2024-01-10T05:40:02;14.80;75.40
72883;DHT22;61017;37.812;-122.286;2024-01-10T05:41:33;14.80;75.50
72883;DHT22;61017;37.812;-122.286;2024-01-10T05:43:04;14.80;75.60
72883;DHT22;61017;37.812;-122.286;2024-01-10T05:44:35;14.80;75.70
72883;DHT22;61017;37.812;-122.286;2024-01-10T05:46:09;14.80;75.50
72883;DHT22;61017;37.812;-122.286;2024-01-10T05:47:41;14.90;75.50
72883;DHT22;61017;37.812;-122.286;2024-01-10T05:49:12;14.90;75.60
72883;DHT22;61017;37.812;-122.286;2024-01-10T05:50:43;14.90;75.50
72883;DHT22;61017;37.812;-122.286;2024-01-10T05:52:14;14.90;75.60
72883;DHT22;61017;37.812;-122.286;2024-01-10T05:53:46;14.90;75.60
72883;DHT22;61017;37.812;-122.286;2024-01-10T05:55:17;14.90;75.40
72883;DHT22;61017;37.812;-122.286;2024-01-10T05:56:48;14.90;75.50
72883;DHT22;61017;37.812;-122.286;2024-01-10T05:58:19;14.80;75.30
72883;DHT22;61017;37.812;-122.286;2024-01-10T05:59:50;14.80;75.30
72883;DHT22;61017;37.812;-122.286;2024-01-10T06:01:21;14.90;75.50
72883;DHT22;61017;37.812;-122.286;2024-01-10T06:02:58;14.80;75.20
72883;DHT22;61017;37.812;-122.286;2024-01-10T06:04:30;14.80;75.20
72883;DHT22;61017;37.812;-122.286;2024-01-10T06:06:05;14.80;75.20
72883;DHT22;61017;37.812;-122.286;2024-01-10T06:07:39;14.80;75.10
72883;DHT22;61017;37.812;-122.286;2024-01-10T06:09:11;14.80;75.20
72883;DHT22;61017;37.812;-122.286;2024-01-10T06:10:42;14.80;74.90
72883;DHT22;61017;37.812;-122.286;2024-01-10T06:12:13;14.80;74.90
72883;DHT22;61017;37.812;-122.286;2024-01-10T06:13:45;14.80;74.90
72883;DHT22;61017;37.812;-122.286;2024-01-10T06:15:19;14.80;75.00
72883;DHT22;61017;37.812;-122.286;2024-01-10T06:16:50;14.80;75.20
72883;DHT22;61017;37.812;-122.286;2024-01-10T06:18:24;14.70;74.60
72883;DHT22;61017;37.812;-122.286;2024-01-10T06:19:55;14.80;74.80
72883;DHT22;61017;37.812;-122.286;2024-01-10T06:21:27;14.80;74.80
72883;DHT22;61017;37.812;-122.286;2024-01-10T06:22:58;14.80;75.00
72883;DHT22;61017;37.812;-122.286;2024-01-10T06:24:29;14.80;74.60
72883;DHT22;61017;37.812;-122.286;2024-01-10T06:26:01;14.70;74.50
72883;DHT22;61017;37.812;-122.286;2024-01-10T06:27:35;14.70;74.50
72883;DHT22;61017;37.812;-122.286;2024-01-10T06:29:06;14.70;74.20
72883;DHT22;61017;37.812;-122.286;2024-01-10T06:30:37;14.70;74.40
72883;DHT22;61017;37.812;-122.286;2024-01-10T06:32:11;14.70;74.40
72883;DHT22;61017;37.812;-122.286;2024-01-10T06:33:43;14.70;74.10
72883;DHT22;61017;37.812;-122.286;2024-01-10T06:35:14;14.70;74.10
72883;DHT22;61017;37.812;-122.286;2024-01-10T06:36:45;14.70;74.20
72883;DHT22;61017;37.812;-122.286;2024-01-10T06:38:16;14.70;74.20
72883;DHT22;61017;37.812;-122.286;2024-01-10T06:39:51;14.70;74.00
72883;DHT22;61017;37.812;-122.286;2024-01-10T06:41:22;14.70;74.00
72883;DHT22;61017;37.812;-122.286;2024-01-10T06:42:53;14.70;73.80
72883;DHT22;61017;37.812;-122.286;2024-01-10T06:44:40;14.80;74.00
72883;DHT22;61017;37.812;-122.286;2024-01-10T06:46:11;14.70;73.90
72883;DHT22;61017;37.812;-122.286;2024-01-10T06:47:45;14.70;74.20
72883;DHT22;61017;37.812;-122.286;2024-01-10T06:49:17;14.80;74.00
72883;DHT22;61017;37.812;-122.286;2024-01-10T06:50:48;14.80;74.00
72883;DHT22;61017;37.812;-122.286;2024-01-10T06:52:22;14.70;73.90
72883;DHT22;61017;37.812;-122.286;2024-01-10T06:53:57;14.80;74.00
72883;DHT22;61017;37.812;-122.286;2024-01-10T06:55:35;14.80;74.00
72883;DHT22;61017;37.812;-122.286;2024-01-10T06:57:06;14.80;74.00
72883;DHT22;61017;37.812;-122.286;2024-01-10T06:58:38;14.80;74.00
72883;DHT22;61017;37.812;-122.286;2024-01-10T07:00:10;14.80;74.00
72883;DHT22;61017;37.812;-122.286;2024-01-10T07:01:41;14.80;73.90
72883;DHT22;61017;37.812;-122.286;2024-01-10T07:03:12;14.80;74.00
72883;DHT22;61017;37.812;-122.286;2024-01-10T07:04:44;14.70;74.00
72883;DHT22;61017;37.812;-122.286;2024-01-10T07:06:18;14.80;74.20
72883;DHT22;61017;37.812;-122.286;2024-01-10T07:07:49;14.70;73.50
72883;DHT22;61017;37.812;-122.286;2024-01-10T07:09:20;14.70;73.60
72883;DHT22;61017;37.812;-122.286;2024-01-10T07:11:00;14.70;74.50
72883;DHT22;61017;37.812;-122.286;2024-01-10T07:12:34;14.70;73.80
72883;DHT22;61017;37.812;-122.286;2024-01-10T07:14:06;14.80;74.10
72883;DHT22;61017;37.812;-122.286;2024-01-10T07:15:37;14.80;74.10
72883;DHT22;61017;37.812;-122.286;2024-01-10T07:17:14;14.80;73.90
72883;DHT22;61017;37.812;-122.286;2024-01-10T07:18:46;14.80;73.90
72883;DHT22;61017;37.812;-122.286;2024-01-10T07:20:19;14.80;73.90
72883;DHT22;61017;37.812;-122.286;2024-01-10T07:21:52;14.80;73.90
72883;DHT22;61017;37.812;-122.286;2024-01-10T07:23:23;14.80;74.00
72883;DHT22;61017;37.812;-122.286;2024-01-10T07:24:54;14.80;74.10
72883;DHT22;61017;37.812;-122.286;2024-01-10T07:26:26;14.80;74.00
72883;DHT22;61017;37.812;-122.286;2024-01-10T07:27:57;14.80;73.90
72883;DHT22;61017;37.812;-122.286;2024-01-10T07:29:34;14.80;73.90
72883;DHT22;61017;37.812;-122.286;2024-01-10T07:31:08;14.70;73.80
72883;DHT22;61017;37.812;-122.286;2024-01-10T07:32:40;14.80;73.90
72883;DHT22;61017;37.812;-122.286;2024-01-10T07:34:14;14.80;73.80
72883;DHT22;61017;37.812;-122.286;2024-01-10T07:35:48;14.80;73.80
72883;DHT22;61017;37.812;-122.286;2024-01-10T07:37:20;14.80;73.70
72883;DHT22;61017;37.812;-122.286;2024-01-10T07:38:54;14.80;73.70
72883;DHT22;61017;37.812;-122.286;2024-01-10T07:40:25;14.80;73.80
72883;DHT22;61017;37.812;-122.286;2024-01-10T07:41:59;14.80;73.80
72883;DHT22;61017;37.812;-122.286;2024-01-10T07:43:30;14.80;73.60
72883;DHT22;61017;37.812;-122.286;2024-01-10T07:45:01;14.80;73.80
72883;DHT22;61017;37.812;-122.286;2024-01-10T07:46:33;14.80;73.80
72883;DHT22;61017;37.812;-122.286;2024-01-10T07:48:13;14.80;73.60
72883;DHT22;61017;37.812;-122.286;2024-01-10T07:49:44;14.80;73.80
72883;DHT22;61017;37.812;-122.286;2024-01-10T07:51:15;14.80;73.50
72883;DHT22;61017;37.812;-122.286;2024-01-10T07:52:49;14.70;74.10
72883;DHT22;61017;37.812;-122.286;2024-01-10T07:54:23;14.70;73.40
72883;DHT22;61017;37.812;-122.286;2024-01-10T07:56:02;14.70;73.50
72883;DHT22;61017;37.812;-122.286;2024-01-10T07:57:33;14.70;73.20
72883;DHT22;61017;37.812;-122.286;2024-01-10T07:59:04;14.70;73.10
72883;DHT22;61017;37.812;-122.286;2024-01-10T08:00:35;14.70;73.50
72883;DHT22;61017;37.812;-122.286;2024-01-10T08:02:06;14.70;73.40
72883;DHT22;61017;37.812;-122.286;2024-01-10T08:03:37;14.70;72.70
72883;DHT22;61017;37.812;-122.286;2024-01-10T08:05:08;14.70;73.20
72883;DHT22;61017;37.812;-122.286;2024-01-10T08:06:40;14.70;72.90
72883;DHT22;61017;37.812;-122.286;2024-01-10T08:08:11;14.60;73.00
72883;DHT22;61017;37.812;-122.286;2024-01-10T08:09:42;14.70;73.10
72883;DHT22;61017;37.812;-122.286;2024-01-10T08:11:13;14.70;73.80
72883;DHT22;61017;37.812;-122.286;2024-01-10T08:12:44;14.70;73.00
72883;DHT22;61017;37.812;-122.286;2024-01-10T08:14:15;14.60;72.40
72883;DHT22;61017;37.812;-122.286;2024-01-10T08:15:47;14.70;72.60
72883;DHT22;61017;37.812;-122.286;2024-01-10T08:17:18;14.60;72.60
72883;DHT22;61017;37.812;-122.286;2024-01-10T08:18:49;14.60;72.00
72883;DHT22;61017;37.812;-122.286;2024-01-10T08:20:21;14.60;72.00
72883;DHT22;61017;37.812;-122.286;2024-01-10T08:21:52;14.50;72.30
72883;DHT22;61017;37.812;-122.286;2024-01-10T08:23:24;14.60;72.10
72883;DHT22;61017;37.812;-122.286;2024-01-10T08:24:55;14.60;72.10
72883;DHT22;61017;37.812;-122.286;2024-01-10T08:26:26;14.60;72.40
72883;DHT22;61017;37.812;-122.286;2024-01-10T08:27:58;14.60;72.40
72883;DHT22;61017;37.812;-122.286;2024-01-10T08:29:29;14.70;72.50
72883;DHT22;61017;37.812;-122.286;2024-01-10T08:31:00;14.60;71.80
72883;DHT22;61017;37.812;-122.286;2024-01-10T08:32:31;14.60;71.90
72883;DHT22;61017;37.812;-122.286;2024-01-10T08:34:02;14.60;71.70
72883;DHT22;61017;37.812;-122.286;2024-01-10T08:35:33;14.50;71.40
72883;DHT22;61017;37.812;-122.286;2024-01-10T08:37:07;14.50;71.30
72883;DHT22;61017;37.812;-122.286;2024-01-10T08:38:38;14.50;71.90
72883;DHT22;61017;37.812;-122.286;2024-01-10T08:40:10;14.50;71.90
72883;DHT22;61017;37.812;-122.286;2024-01-10T08:41:41;14.50;71.70
72883;DHT22;61017;37.812;-122.286;2024-01-10T08:43:12;14.60;71.80
72883;DHT22;61017;37.812;-122.286;2024-01-10T08:44:43;14.60;71.70
72883;DHT22;61017;37.812;-122.286;2024-01-10T08:46:14;14.60;71.50
72883;DHT22;61017;37.812;-122.286;2024-01-10T08:47:45;14.50;71.10
72883;DHT22;61017;37.812;-122.286;2024-01-10T08:49:17;14.50;71.50
72883;DHT22;61017;37.812;-122.286;2024-01-10T08:50:48;14.50;71.70
72883;DHT22;61017;37.812;-122.286;2024-01-10T08:52:19;14.60;71.70
72883;DHT22;61017;37.812;-122.286;2024-01-10T08:53:50;14.60;71.90
72883;DHT22;61017;37.812;-122.286;2024-01-10T08:55:21;14.60;71.90
72883;DHT22;61017;37.812;-122.286;2024-01-10T08:56:52;14.60;71.50
72883;DHT22;61017;37.812;-122.286;2024-01-10T08:58:23;14.60;71.10
72883;DHT22;61017;37.812;-122.286;2024-01-10T08:59:54;14.50;71.10
72883;DHT22;61017;37.812;-122.286;2024-01-10T09:01:28;14.50;71.10
72883;DHT22;61017;37.812;-122.286;2024-01-10T09:03:00;14.50;70.90
72883;DHT22;61017;37.812;-122.286;2024-01-10T09:04:31;14.50;71.50
72883;DHT22;61017;37.812;-122.286;2024-01-10T09:06:05;14.40;71.00
72883;DHT22;61017;37.812;-122.286;2024-01-10T09:07:37;14.40;71.10
72883;DHT22;61017;37.812;-122.286;2024-01-10T09:09:11;14.40;70.90
72883;DHT22;61017;37.812;-122.286;2024-01-10T09:10:42;14.40;71.00
72883;DHT22;61017;37.812;-122.286;2024-01-10T09:12:14;14.40;70.90
72883;DHT22;61017;37.812;-122.286;2024-01-10T09:13:46;14.40;71.00
72883;DHT22;61017;37.812;-122.286;2024-01-10T09:15:19;14.50;71.30
72883;DHT22;61017;37.812;-122.286;2024-01-10T09:16:51;14.50;71.10
72883;DHT22;61017;37.812;-122.286;2024-01-10T09:18:22;14.50;71.00
72883;DHT22;61017;37.812;-122.286;2024-01-10T09:19:53;14.50;71.10
72883;DHT22;61017;37.812;-122.286;2024-01-10T09:21:25;14.40;70.70
72883;DHT22;61017;37.812;-122.286;2024-01-10T09:22:56;14.50;71.10
72883;DHT22;61017;37.812;-122.286;2024-01-10T09:24:27;14.50;71.10
72883;DHT22;61017;37.812;-122.286;2024-01-10T09:25:59;14.50;70.90